Time;durP1;ratioP1;P1;durP2;ratioP2;P2;SDS_P1;SDS_P2;PMS_P1;PMS_P2;Temp;Humidity;BMP_temperature;BMP_pressure;BME280_temperature;BME280_humidity;BME280_pressure;Samples;Min_cycle;Max_cycle;Signal;HPM_P1;HPM_P2
2023/10/13 00:01:34;;;;;;;;;;;;;;;17.36;100.00;100111.94;5091943;28;19918;-80
2023/10/13 00:04:22;;;;;;;;;;;;;;;17.34;100.00;100105.84;5093784;28;19914;-79
2023/10/13 00:07:09;;;;;;;;;;;;;;;17.32;100.00;100101.75;5083124;28;19957;-79
2023/10/13 00:09:53;;;;;;;;;;;;;;;17.30;100.00;100102.13;5116264;28;19976;-79
2023/10/13 00:12:37;;;;;;;;;;;;;;;17.27;100.00;100094.38;5114125;28;19914;-79
2023/10/13 00:15:27;;;;;;;;;;;;;;;17.26;100.00;100094.75;5094699;28;19934;-79
2023/10/13 00:18:14;;;;;;;;;;;;;;;17.22;100.00;100093.78;5120279;28;20259;-79
2023/10/13 00:21:03;;;;;;;;;;;;;;;17.20;100.00;100096.94;5115958;28;19914;-79
2023/10/13 00:23:53;;;;;;;;;;;;;;;17.16;100.00;100096.84;5112892;28;19913;-79
2023/10/13 00:26:37;;;;;;;;;;;;;;;17.13;100.00;100091.94;5110585;28;19914;-79
2023/10/13 00:29:29;;;;;;;;;;;;;;;17.13;100.00;100091.09;5091898;28;20386;-79
2023/10/13 00:32:12;;;;;;;;;;;;;;;17.11;100.00;100087.84;5125386;27;19918;-79
2023/10/13 00:34:57;;;;;;;;;;;;;;;17.09;100.00;100093.78;5094488;28;19919;-79
2023/10/13 00:37:44;;;;;;;;;;;;;;;17.07;100.00;100082.06;5067450;28;19923;-79
2023/10/13 00:48:54;;;;;;;;;;;;;;;17.05;100.00;100070.41;5078692;28;19954;-79
2023/10/13 00:51:40;;;;;;;;;;;;;;;17.04;100.00;100062.31;5078634;28;20303;-79
2023/10/13 00:54:26;;;;;;;;;;;;;;;17.03;100.00;100052.28;5059163;28;19915;-79
2023/10/13 01:00:24;;;;;;;;;;;;;;;16.97;100.00;100051.69;5076594;28;19919;-80
2023/10/13 01:03:08;;;;;;;;;;;;;;;16.97;100.00;100043.28;5077938;28;19970;-80
2023/10/13 01:05:54;;;;;;;;;;;;;;;16.94;100.00;100041.16;5058344;28;19916;-80
2023/10/13 01:08:38;;;;;;;;;;;;;;;16.92;100.00;100047.13;5069345;28;19916;-79
2023/10/13 01:11:23;;;;;;;;;;;;;;;16.90;100.00;100043.00;5064479;28;19958;-79
2023/10/13 01:14:07;;;;;;;;;;;;;;;16.89;100.00;100036.59;5058542;28;19915;-79
2023/10/13 01:16:55;;;;;;;;;;;;;;;16.88;100.00;100031.31;5076355;28;19919;-80
2023/10/13 01:19:42;;;;;;;;;;;;;;;16.85;100.00;100016.00;5078042;28;19916;-79
2023/10/13 01:22:28;;;;;;;;;;;;;;;16.82;100.00;100018.69;5078278;28;20311;-79
2023/10/13 01:25:18;;;;;;;;;;;;;;;16.81;100.00;100011.47;5064365;28;19931;-79
2023/10/13 01:28:02;;;;;;;;;;;;;;;16.80;100.00;100005.03;5053256;28;19931;-79
2023/10/13 01:30:49;;;;;;;;;;;;;;;16.81;100.00;100008.66;5077925;28;20260;-79
2023/10/13 01:33:34;;;;;;;;;;;;;;;16.78;100.00;100006.56;5064426;28;19919;-79
2023/10/13 01:36:18;;;;;;;;;;;;;;;16.73;100.00;99987.94;5092209;28;19922;-79
2023/10/13 01:39:02;;;;;;;;;;;;;;;16.72;100.00;99981.50;5090702;28;19954;-80
2023/10/13 01:41:46;;;;;;;;;;;;;;;16.73;100.00;99974.72;5109299;28;19930;-79
2023/10/13 01:44:31;;;;;;;;;;;;;;;16.72;100.00;99966.69;5113746;28;19916;-79
2023/10/13 01:47:16;;;;;;;;;;;;;;;16.70;100.00;99958.59;5090540;28;19956;-79
2023/10/13 01:50:14;;;;;;;;;;;;;;;16.69;100.00;99959.78;5113574;28;19914;-80
2023/10/13 01:56:05;;;;;;;;;;;;;;;16.70;100.00;99949.38;5098491;28;19918;-80
2023/10/13 01:58:49;;;;;;;;;;;;;;;16.70;100.00;99944.56;5091702;28;19957;-79
2023/10/13 02:01:34;;;;;;;;;;;;;;;16.71;100.00;99939.78;5107094;28;19938;-79
2023/10/13 02:04:21;;;;;;;;;;;;;;;16.71;100.00;99949.00;5111869;28;19958;-79
2023/10/13 02:07:08;;;;;;;;;;;;;;;16.72;100.00;99941.44;5094367;28;20001;-79
2023/10/13 02:09:54;;;;;;;;;;;;;;;16.69;100.00;99937.34;5116433;28;19915;-79
2023/10/13 02:12:44;;;;;;;;;;;;;;;16.67;100.00;99927.66;5119214;28;19914;-79
2023/10/13 02:15:34;;;;;;;;;;;;;;;16.63;100.00;99915.47;5107799;28;19919;-80
2023/10/13 02:18:26;;;;;;;;;;;;;;;16.61;100.00;99918.66;5080298;28;19968;-79
2023/10/13 02:21:13;;;;;;;;;;;;;;;16.57;100.00;99906.47;5089683;28;19914;-79
2023/10/13 02:24:00;;;;;;;;;;;;;;;16.54;100.00;99905.19;5089921;28;19950;-79
2023/10/13 02:26:44;;;;;;;;;;;;;;;16.52;100.00;99896.34;5112370;28;19918;-79
2023/10/13 02:29:28;;;;;;;;;;;;;;;16.46;100.00;99896.88;5077766;28;20283;-79
2023/10/13 02:32:30;;;;;;;;;;;;;;;16.44;100.00;99888.84;5095835;27;19918;-79
2023/10/13 02:35:17;;;;;;;;;;;;;;;16.44;100.00;99882.44;5110978;28;19918;-80
2023/10/13 02:38:10;;;;;;;;;;;;;;;16.44;100.00;99874.03;5091677;28;19923;-79
2023/10/13 02:40:54;;;;;;;;;;;;;;;16.42;100.00;99865.13;5081448;28;20007;-79
2023/10/13 02:43:39;;;;;;;;;;;;;;;16.42;100.00;99856.72;5105461;28;19919;-79
2023/10/13 02:46:23;;;;;;;;;;;;;;;16.42;100.00;99842.72;5108901;28;19960;-79
2023/10/13 02:49:10;;;;;;;;;;;;;;;16.39;100.00;99849.84;5113552;28;20272;-79
2023/10/13 02:51:55;;;;;;;;;;;;;;;16.37;100.00;99834.53;5107560;28;19914;-79
2023/10/13 02:54:47;;;;;;;;;;;;;;;16.36;100.00;99839.34;5105745;28;20014;-80
2023/10/13 02:57:34;;;;;;;;;;;;;;;16.35;100.00;99832.06;5093161;28;20316;-79
2023/10/13 03:00:22;;;;;;;;;;;;;;;16.31;100.00;99837.56;5101922;28;19960;-80
2023/10/13 03:03:07;;;;;;;;;;;;;;;16.30;100.00;99835.13;5090560;28;19938;-79
2023/10/13 03:05:51;;;;;;;;;;;;;;;16.29;100.00;99834.28;5111108;28;19918;-79
2023/10/13 03:08:37;;;;;;;;;;;;;;;16.28;100.00;99832.66;5083997;28;19964;-79
2023/10/13 03:11:21;;;;;;;;;;;;;;;16.27;100.00;99819.84;5105745;28;19914;-79
2023/10/13 03:14:07;;;;;;;;;;;;;;;16.23;100.00;99821.69;5089540;28;20018;-79
2023/10/13 03:16:55;;;;;;;;;;;;;;;16.23;100.00;99810.47;5100442;28;19957;-79
2023/10/13 03:19:44;;;;;;;;;;;;;;;16.23;100.00;99796.47;5101083;28;20035;-79
2023/10/13 03:22:31;;;;;;;;;;;;;;;16.24;100.00;99789.72;5097934;28;19913;-79
2023/10/13 03:28:33;;;;;;;;;;;;;;;16.24;100.00;99777.66;5088166;28;20270;-79
2023/10/13 03:31:27;;;;;;;;;;;;;;;16.27;100.00;99779.78;5092715;28;19914;-79
2023/10/13 03:34:12;;;;;;;;;;;;;;;16.27;100.00;99783.41;5116575;28;19914;-79
2023/10/13 03:36:59;;;;;;;;;;;;;;;16.29;100.00;99774.63;5096524;28;20020;-79
2023/10/13 03:39:45;;;;;;;;;;;;;;;16.30;100.00;99765.91;5107825;28;19915;-79
2023/10/13 03:42:29;;;;;;;;;;;;;;;16.31;100.00;99770.31;5077181;28;19956;-79
2023/10/13 03:45:13;;;;;;;;;;;;;;;16.33;100.00;99760.75;5105775;28;19914;-80
2023/10/13 03:47:58;;;;;;;;;;;;;;;16.31;100.00;99759.13;5089890;28;19919;-79
2023/10/13 03:50:57;;;;;;;;;;;;;;;16.30;100.00;99757.50;5079349;28;19915;-79
2023/10/13 03:53:53;;;;;;;;;;;;;;;16.31;100.00;99753.50;5099777;28;19915;-79
2023/10/13 03:56:40;;;;;;;;;;;;;;;16.32;100.00;99743.13;5107587;28;20019;-79
2023/10/13 03:59:32;;;;;;;;;;;;;;;16.31;100.00;99739.50;5094055;28;19961;-79
2023/10/13 04:02:18;;;;;;;;;;;;;;;16.33;100.00;99736.34;5079471;28;19915;-79
2023/10/13 04:05:09;;;;;;;;;;;;;;;16.32;100.00;99740.31;5112724;28;19961;-79
2023/10/13 04:14:21;;;;;;;;;;;;;;;16.32;100.00;99731.91;5116204;28;19918;-79
2023/10/13 04:16:54;;;;;;;;;;;;;;;16.31;100.00;99725.50;5121054;28;19918;-79
2023/10/13 04:20:12;;;;;;;;;;;;;;;16.34;100.00;99728.75;5107380;28;19941;-79
2023/10/13 04:25:35;;;;;;;;;;;;;;;16.30;100.00;99723.88;5120794;28;19996;-80
2023/10/13 04:31:59;;;;;;;;;;;;;;;16.26;100.00;99716.50;5097133;27;19915;-79
2023/10/13 04:34:46;;;;;;;;;;;;;;;16.26;100.00;99706.09;5088909;28;19946;-79
2023/10/13 04:37:32;;;;;;;;;;;;;;;16.26;100.00;99711.72;5117977;28;19965;-79
2023/10/13 04:40:24;;;;;;;;;;;;;;;16.25;100.00;99701.69;5101574;28;19914;-79
2023/10/13 04:43:33;;;;;;;;;;;;;;;16.26;100.00;99699.69;5112892;28;19965;-79
2023/10/13 04:46:35;;;;;;;;;;;;;;;16.26;100.00;99700.50;5092572;28;20041;-79
2023/10/13 04:49:28;;;;;;;;;;;;;;;16.25;100.00;99698.88;5101328;28;19981;-79
2023/10/13 04:52:15;;;;;;;;;;;;;;;16.25;100.00;99698.88;5083777;28;19914;-79
2023/10/13 04:55:09;;;;;;;;;;;;;;;16.24;100.00;99697.25;5077402;28;19973;-79
2023/10/13 04:58:10;;;;;;;;;;;;;;;16.23;100.00;99697.59;5114102;28;19976;-79
2023/10/13 05:01:16;;;;;;;;;;;;;;;16.22;100.00;99695.97;5095321;28;20003;-79
2023/10/13 05:49:52;;;;;;;;;;;;;;;16.14;100.00;99685.72;5112190;28;19934;-79
2023/10/13 06:29:19;;;;;;;;;;;;;;;16.27;100.00;99685.34;5107132;28;19930;-81
2023/10/13 06:32:10;;;;;;;;;;;;;;;16.29;100.00;99682.19;5098704;27;19956;-81
2023/10/13 06:35:18;;;;;;;;;;;;;;;16.29;100.00;99677.38;5093021;28;19965;-80
2023/10/13 06:38:02;;;;;;;;;;;;;;;16.31;100.00;99691.88;5098577;28;19922;-80
2023/10/13 06:40:48;;;;;;;;;;;;;;;16.35;100.00;99679.94;5089761;28;20024;-80
2023/10/13 06:43:33;;;;;;;;;;;;;;;16.37;100.00;99684.03;5107193;28;19915;-80
2023/10/13 06:46:23;;;;;;;;;;;;;;;16.40;100.00;99686.13;5090077;28;19915;-80
2023/10/13 06:49:10;;;;;;;;;;;;;;;16.43;100.00;99679.00;5094599;28;20255;-80
2023/10/13 06:51:54;;;;;;;;;;;;;;;16.47;100.00;99679.94;5090743;28;20370;-80
2023/10/13 06:54:42;;;;;;;;;;;;;;;16.50;100.00;99670.81;5078276;28;19922;-80
2023/10/13 06:57:26;;;;;;;;;;;;;;;16.54;100.00;99672.53;5094575;28;19918;-80
2023/10/13 07:00:19;;;;;;;;;;;;;;;16.57;100.00;99671.03;5104215;28;19922;-80
2023/10/13 07:03:06;;;;;;;;;;;;;;;16.61;100.00;99674.75;5099020;28;19961;-80
2023/10/13 07:05:51;;;;;;;;;;;;;;;16.65;100.00;99669.25;5108776;28;19984;-80
2023/10/13 07:08:37;;;;;;;;;;;;;;;16.69;100.00;99678.59;5108735;28;20306;-81
2023/10/13 07:11:33;;;;;;;;;;;;;;;16.74;100.00;99681.13;5105560;28;20044;-80
2023/10/13 07:14:16;;;;;;;;;;;;;;;16.78;100.00;99678.47;5090366;28;20268;-80
2023/10/13 07:17:02;;;;;;;;;;;;;;;16.83;100.00;99681.84;5083080;28;19919;-81
2023/10/13 07:19:53;;;;;;;;;;;;;;;16.87;100.00;99681.94;5089800;28;19914;-80
2023/10/13 07:22:39;;;;;;;;;;;;;;;16.90;100.00;99672.81;5095476;28;19953;-80
2023/10/13 07:25:25;;;;;;;;;;;;;;;16.95;100.00;99676.19;5102970;28;19958;-81
2023/10/13 07:28:10;;;;;;;;;;;;;;;16.99;100.00;99687.50;5075413;28;19953;-80
2023/10/13 07:33:40;;;;;;;;;;;;;;;17.11;100.00;99689.44;5105381;28;19915;-80
2023/10/13 07:36:33;;;;;;;;;;;;;;;17.18;100.00;99686.81;5087849;28;20394;-81
2023/10/13 07:39:25;;;;;;;;;;;;;;;17.25;100.00;99689.03;5074140;28;19919;-80
2023/10/13 07:42:19;;;;;;;;;;;;;;;17.30;100.00;99691.56;5099304;28;19914;-80
2023/10/13 07:45:04;;;;;;;;;;;;;;;17.36;100.00;99690.13;5111754;28;20310;-80
2023/10/13 07:47:49;;;;;;;;;;;;;;;17.44;100.00;99697.56;5104676;28;19914;-80
2023/10/13 07:50:34;;;;;;;;;;;;;;;17.50;100.00;99689.69;5094611;28;20007;-81
2023/10/13 07:53:24;;;;;;;;;;;;;;;17.57;100.00;99698.28;5105044;28;19915;-80
2023/10/13 07:56:08;;;;;;;;;;;;;;;17.65;100.00;99700.13;5103393;28;19974;-81
2023/10/13 07:58:52;;;;;;;;;;;;;;;17.73;100.00;99704.75;5094305;28;19958;-80
2023/10/13 08:01:36;;;;;;;;;;;;;;;17.81;100.00;99700.16;5108851;28;19914;-81
2023/10/13 08:04:28;;;;;;;;;;;;;;;17.90;100.00;99700.78;5105343;28;20358;-80
2023/10/13 08:07:13;;;;;;;;;;;;;;;17.99;100.00;99698.59;5084890;28;20263;-81
2023/10/13 08:09:59;;;;;;;;;;;;;;;18.07;100.00;99691.97;5090307;28;20453;-81
2023/10/13 08:12:44;;;;;;;;;;;;;;;18.17;100.00;99692.63;5121275;28;19914;-81
2023/10/13 08:15:33;;;;;;;;;;;;;;;18.25;100.00;99685.97;5089229;28;19918;-81
2023/10/13 08:18:29;;;;;;;;;;;;;;;18.32;100.00;99677.69;5095437;28;19958;-81
2023/10/13 08:21:16;;;;;;;;;;;;;;;18.42;100.00;99673.50;5108890;28;19915;-81
2023/10/13 08:24:06;;;;;;;;;;;;;;;18.51;100.00;99683.34;5092389;28;19961;-81
2023/10/13 08:32:56;;;;;;;;;;;;;;;18.78;100.00;99689.19;5093493;28;19929;-81
2023/10/13 08:35:54;;;;;;;;;;;;;;;18.85;100.00;99688.53;5101186;28;19923;-80
2023/10/13 08:38:55;;;;;;;;;;;;;;;18.94;100.00;99677.84;5121041;28;19954;-81
2023/10/13 08:41:53;;;;;;;;;;;;;;;19.00;100.00;99684.00;5113601;28;20382;-81
2023/10/13 08:44:39;;;;;;;;;;;;;;;19.06;100.00;99690.97;5111879;28;20063;-81
2023/10/13 08:47:28;;;;;;;;;;;;;;;19.08;100.00;99686.56;5096005;28;19919;-81
2023/10/13 08:50:47;;;;;;;;;;;;;;;19.15;100.00;99700.00;5091829;28;19916;-81
2023/10/13 08:53:44;;;;;;;;;;;;;;;19.21;100.00;99695.69;5113010;28;19976;-80
2023/10/13 08:56:35;;;;;;;;;;;;;;;19.25;100.00;99688.13;5102619;28;19914;-80
2023/10/13 08:59:22;;;;;;;;;;;;;;;19.29;100.00;99689.00;5114114;28;19934;-81
2023/10/13 09:02:17;;;;;;;;;;;;;;;19.31;100.00;99688.66;5102034;28;19929;-82
2023/10/13 09:05:09;;;;;;;;;;;;;;;19.36;100.00;99697.59;5117734;28;20003;-81
2023/10/13 09:07:55;;;;;;;;;;;;;;;19.41;100.00;99686.00;5098563;28;19998;-81
2023/10/13 09:11:05;;;;;;;;;;;;;;;19.47;100.00;99666.00;5096288;28;20408;-81
2023/10/13 09:13:51;;;;;;;;;;;;;;;19.54;100.00;99672.59;5100663;28;20317;-81
2023/10/13 09:19:27;;;;;;;;;;;;;;;19.64;100.00;99688.88;5115811;28;19923;-81
2023/10/13 09:22:24;;;;;;;;;;;;;;;19.73;100.00;99693.47;5104857;28;20568;-81
2023/10/13 09:25:13;;;;;;;;;;;;;;;19.76;100.00;99690.69;5081452;28;19919;-81
2023/10/13 09:28:00;;;;;;;;;;;;;;;19.84;100.00;99700.91;5093049;28;19934;-81
2023/10/13 09:30:47;;;;;;;;;;;;;;;19.88;100.00;99688.88;5090737;28;19929;-81
2023/10/13 09:33:40;;;;;;;;;;;;;;;19.96;100.00;99699.09;5118901;28;19914;-81
2023/10/13 09:36:25;;;;;;;;;;;;;;;20.03;100.00;99699.19;5112636;28;19922;-81
2023/10/13 09:39:25;;;;;;;;;;;;;;;20.10;100.00;99699.31;5091316;28;19914;-81
2023/10/13 09:42:10;;;;;;;;;;;;;;;20.21;100.00;99705.13;5092550;28;19956;-81
2023/10/13 09:45:04;;;;;;;;;;;;;;;20.31;100.00;99704.47;5110644;28;19919;-81
2023/10/13 09:47:52;;;;;;;;;;;;;;;20.38;100.00;99693.28;5094633;28;19915;-81
2023/10/13 09:50:40;;;;;;;;;;;;;;;20.42;100.00;99704.63;5080818;28;19965;-81
2023/10/13 09:53:25;;;;;;;;;;;;;;;20.47;100.00;99693.00;5101985;28;20278;-81
2023/10/13 09:56:13;;;;;;;;;;;;;;;20.46;100.00;99694.22;5100858;28;20426;-81
2023/10/13 09:59:01;;;;;;;;;;;;;;;20.46;100.00;99689.38;5093787;28;20010;-80
2023/10/13 10:02:31;;;;;;;;;;;;;;;20.44;100.00;99696.59;5106081;28;20072;-81
2023/10/13 10:04:53;;;;;;;;;;;;;;;20.45;100.00;99686.97;5107090;28;20465;-81
2023/10/13 10:07:39;;;;;;;;;;;;;;;20.44;100.00;99685.31;5093584;28;20033;-80
2023/10/13 10:10:24;;;;;;;;;;;;;;;20.46;100.00;99700.66;5081956;28;20267;-81
2023/10/13 10:13:12;;;;;;;;;;;;;;;20.43;100.00;99695.78;5104077;28;19960;-81
2023/10/13 10:15:56;;;;;;;;;;;;;;;20.44;100.00;99693.78;5086881;28;19956;-81
2023/10/13 10:18:41;;;;;;;;;;;;;;;20.44;100.00;99688.13;5105554;28;19914;-81
2023/10/13 10:21:32;;;;;;;;;;;;;;;20.44;100.00;99674.03;5090076;28;19915;-82
2023/10/13 10:24:29;;;;;;;;;;;;;;;20.44;100.00;99682.50;5089086;28;19934;-81
2023/10/13 10:27:16;;;;;;;;;;;;;;;20.40;100.00;99685.28;5106095;28;19914;-82
2023/10/13 10:30:03;;;;;;;;;;;;;;;20.38;100.00;99669.94;5089372;28;19915;-82
2023/10/13 10:32:53;;;;;;;;;;;;;;;20.35;100.00;99676.34;5108835;28;19915;-81
2023/10/13 10:35:42;;;;;;;;;;;;;;;20.33;100.00;99667.44;5086303;28;19919;-82
2023/10/13 10:41:13;;;;;;;;;;;;;;;20.26;100.00;99656.88;5102450;28;19913;-81
2023/10/13 10:44:02;;;;;;;;;;;;;;;20.21;100.00;99666.47;5088737;28;20367;-82
2023/10/13 10:46:56;;;;;;;;;;;;;;;20.19;100.00;99643.47;5114858;27;20362;-81
2023/10/13 10:49:43;;;;;;;;;;;;;;;20.18;100.00;99650.31;5103661;27;19914;-81
2023/10/13 10:52:36;;;;;;;;;;;;;;;20.14;100.00;99637.34;5127646;27;19914;-81
2023/10/13 10:55:22;;;;;;;;;;;;;;;20.09;100.00;99642.13;5074480;28;19914;-81
2023/10/13 10:58:06;;;;;;;;;;;;;;;20.07;100.00;99638.06;5120189;27;19919;-81
2023/10/13 11:01:01;;;;;;;;;;;;;;;20.04;100.00;99645.28;5093394;28;19923;-81
2023/10/13 11:03:58;;;;;;;;;;;;;;;20.06;100.00;99630.81;5091883;28;19954;-81
2023/10/13 11:06:45;;;;;;;;;;;;;;;20.09;100.00;99624.41;5098150;28;19957;-81
2023/10/13 11:09:52;;;;;;;;;;;;;;;20.08;100.00;99617.13;5113427;28;19915;-81
2023/10/13 11:12:34;;;;;;;;;;;;;;;20.09;100.00;99624.41;5117745;28;20002;-80
2023/10/13 11:15:34;;;;;;;;;;;;;;;20.06;100.00;99617.53;5117752;28;20003;-81
2023/10/13 11:18:21;;;;;;;;;;;;;;;20.06;100.00;99625.97;5079406;28;19935;-81
2023/10/13 11:21:06;;;;;;;;;;;;;;;20.07;100.00;99609.88;5088125;28;19937;-81
2023/10/13 11:23:57;;;;;;;;;;;;;;;20.04;100.00;99614.28;5109628;28;19917;-82
2023/10/13 11:26:51;;;;;;;;;;;;;;;20.08;100.00;99617.13;5096904;28;19914;-81
2023/10/13 11:29:35;;;;;;;;;;;;;;;20.06;100.00;99597.81;5104674;28;19929;-81
2023/10/13 11:32:22;;;;;;;;;;;;;;;20.09;100.00;99591.41;5110968;28;19933;-81
2023/10/13 11:35:20;;;;;;;;;;;;;;;20.14;100.00;99597.88;5092594;28;19961;-81
2023/10/13 11:38:13;;;;;;;;;;;;;;;20.12;100.00;99597.47;5098268;28;20019;-81
2023/10/13 11:49:31;;;;;;;;;;;;;;;20.20;100.00;99594.38;5112555;28;20040;-80
2023/10/13 11:52:18;;;;;;;;;;;;;;;20.18;100.00;99587.50;5102436;28;19915;-80
2023/10/13 11:55:02;;;;;;;;;;;;;;;20.17;100.00;99566.94;5096440;28;19915;-81
2023/10/13 11:57:46;;;;;;;;;;;;;;;20.15;100.00;99577.78;5094058;28;20396;-80
2023/10/13 12:12:12;;;;;;;;;;;;;;;20.31;100.00;99541.75;5107279;28;19961;-80
2023/10/13 12:14:56;;;;;;;;;;;;;;;20.31;100.00;99541.75;5090000;28;20370;-80
2023/10/13 12:17:44;;;;;;;;;;;;;;;20.33;100.00;99563.13;5097967;28;19918;-81
2023/10/13 12:20:35;;;;;;;;;;;;;;;20.39;100.00;99556.75;5092075;28;19915;-80
2023/10/13 12:23:20;;;;;;;;;;;;;;;20.40;100.00;99546.28;5095007;28;19952;-80
2023/10/13 12:26:06;;;;;;;;;;;;;;;20.46;100.00;99554.03;5104215;28;19938;-81
2023/10/13 12:28:53;;;;;;;;;;;;;;;20.50;100.00;99563.34;5088875;28;20348;-80
2023/10/13 12:31:39;;;;;;;;;;;;;;;20.49;100.00;99564.53;5113373;28;19934;-80
2023/10/13 12:34:46;;;;;;;;;;;;;;;20.48;100.00;99560.09;5107507;28;19914;-81
2023/10/13 12:52:31;;;;;;;;;;;;;;;20.01;100.00;99518.41;5105708;28;19957;-80
2023/10/13 12:55:19;;;;;;;;;;;;;;;19.99;100.00;99518.78;5102500;28;19933;-80
2023/10/13 12:58:04;;;;;;;;;;;;;;;19.95;100.00;99517.94;5120626;28;19915;-80
2023/10/13 13:00:48;;;;;;;;;;;;;;;19.92;100.00;99498.97;5095078;28;19931;-81
2023/10/13 13:03:32;;;;;;;;;;;;;;;19.90;100.00;99492.91;5118504;28;20016;-80
2023/10/13 13:06:26;;;;;;;;;;;;;;;19.87;100.00;99488.03;5100074;28;19914;-81
2023/10/13 13:09:10;;;;;;;;;;;;;;;19.86;100.00;99490.03;5112130;28;19931;-80
2023/10/13 13:11:57;;;;;;;;;;;;;;;19.85;100.00;99491.22;5099848;28;19972;-81
2023/10/13 13:14:45;;;;;;;;;;;;;;;19.84;100.00;99478.34;5097326;28;19919;-80
2023/10/13 13:17:30;;;;;;;;;;;;;;;19.84;100.00;99467.06;5114220;28;19934;-80
2023/10/13 13:20:39;;;;;;;;;;;;;;;19.82;100.00;99461.00;5094881;28;20305;-80
2023/10/13 13:23:25;;;;;;;;;;;;;;;19.81;100.00;99462.19;5096653;28;19922;-80
2023/10/13 13:26:15;;;;;;;;;;;;;;;19.80;100.00;99466.19;5091129;28;19990;-80
2023/10/13 13:28:59;;;;;;;;;;;;;;;19.80;100.00;99454.91;5109454;28;19914;-80
2023/10/13 13:31:44;;;;;;;;;;;;;;;19.77;100.00;99464.13;5098509;27;19950;-80
2023/10/13 13:34:28;;;;;;;;;;;;;;;19.76;100.00;99451.25;5080861;28;19914;-80
2023/10/13 13:37:12;;;;;;;;;;;;;;;19.75;100.00;99452.47;5113753;28;19964;-80
2023/10/13 13:40:13;;;;;;;;;;;;;;;19.74;100.00;99459.25;5104144;28;19914;-80
2023/10/13 13:42:57;;;;;;;;;;;;;;;19.73;100.00;99454.84;5109179;28;20359;-80
2023/10/13 13:45:42;;;;;;;;;;;;;;;19.71;100.00;99453.59;5090425;28;19958;-80
2023/10/13 13:48:27;;;;;;;;;;;;;;;19.66;100.00;99449.09;5108009;28;19915;-80
2023/10/13 13:51:14;;;;;;;;;;;;;;;19.63;100.00;99463.91;5111838;28;19914;-81
2023/10/13 13:53:58;;;;;;;;;;;;;;;19.61;100.00;99460.66;5069530;28;19961;-81
2023/10/13 13:56:42;;;;;;;;;;;;;;;19.59;100.00;99465.88;5110372;28;19968;-81
2023/10/13 13:59:26;;;;;;;;;;;;;;;19.58;100.00;99456.59;5110489;28;19956;-81
2023/10/13 14:02:19;;;;;;;;;;;;;;;19.58;100.00;99439.69;5093966;28;20400;-80
2023/10/13 14:05:03;;;;;;;;;;;;;;;19.58;100.00;99456.59;5107060;28;19914;-81
2023/10/13 14:07:50;;;;;;;;;;;;;;;19.61;100.00;99438.97;5093540;28;20057;-80
2023/10/13 14:11:13;;;;;;;;;;;;;;;19.64;100.00;99429.75;5091760;28;19926;-80
2023/10/13 14:13:57;;;;;;;;;;;;;;;19.67;100.00;99421.72;5095907;28;19961;-80
2023/10/13 14:16:44;;;;;;;;;;;;;;;19.69;100.00;99427.81;5099765;28;19918;-80
2023/10/13 14:19:28;;;;;;;;;;;;;;;19.72;100.00;99425.03;5106176;28;20401;-80
2023/10/13 14:22:12;;;;;;;;;;;;;;;19.74;100.00;99422.66;5090437;28;19914;-80
2023/10/13 14:24:56;;;;;;;;;;;;;;;19.77;100.00;99427.50;5101921;28;19914;-80
2023/10/13 14:27:41;;;;;;;;;;;;;;;19.80;100.00;99421.13;5089970;28;20263;-80
2023/10/13 14:30:29;;;;;;;;;;;;;;;19.82;100.00;99432.81;5111521;28;19950;-80
2023/10/13 14:33:13;;;;;;;;;;;;;;;19.84;100.00;99421.97;5099625;28;19915;-80
2023/10/13 14:35:57;;;;;;;;;;;;;;;19.92;100.00;99422.91;5089325;28;19965;-80
2023/10/13 14:38:44;;;;;;;;;;;;;;;19.97;100.00;99396.38;5107925;28;19922;-80
2023/10/13 14:41:29;;;;;;;;;;;;;;;20.02;100.00;99404.47;5091798;28;19919;-79
2023/10/13 14:44:13;;;;;;;;;;;;;;;20.06;100.00;99388.44;5089988;28;20416;-80
2023/10/13 14:46:57;;;;;;;;;;;;;;;20.14;100.00;99389.31;5105999;28;19960;-79
2023/10/13 14:49:41;;;;;;;;;;;;;;;20.20;100.00;99401.88;5110391;28;19914;-79
2023/10/13 14:52:25;;;;;;;;;;;;;;;20.25;100.00;99405.16;5102572;28;19915;-80
2023/10/13 14:55:18;;;;;;;;;;;;;;;20.32;100.00;99404.41;5090751;28;19914;-80
2023/10/13 14:58:04;;;;;;;;;;;;;;;20.34;100.00;99387.09;5110590;28;20251;-80
2023/10/13 15:00:48;;;;;;;;;;;;;;;20.36;100.00;99399.59;5099382;28;19919;-79
2023/10/13 15:03:37;;;;;;;;;;;;;;;20.39;100.00;99400.84;5091288;28;19957;-80
2023/10/13 15:06:25;;;;;;;;;;;;;;;20.37;100.00;99392.00;5107515;28;19914;-80
2023/10/13 15:09:11;;;;;;;;;;;;;;;20.38;100.00;99404.88;5114113;28;19938;-80
2023/10/13 15:11:55;;;;;;;;;;;;;;;20.37;100.00;99395.63;5081456;28;19938;-80
2023/10/13 15:14:42;;;;;;;;;;;;;;;20.36;100.00;99405.25;5102610;28;20362;-79
2023/10/13 15:17:28;;;;;;;;;;;;;;;20.36;100.00;99399.59;5095561;28;19919;-79
2023/10/13 15:20:17;;;;;;;;;;;;;;;20.37;100.00;99408.91;5105508;28;19915;-80
2023/10/13 15:23:02;;;;;;;;;;;;;;;20.34;100.00;99387.09;5077057;28;19935;-80
2023/10/13 15:25:52;;;;;;;;;;;;;;;20.31;100.00;99412.06;5102934;28;19915;-80
2023/10/13 15:28:48;;;;;;;;;;;;;;;20.27;100.00;99408.38;5089842;28;20276;-80
2023/10/13 15:31:37;;;;;;;;;;;;;;;20.29;100.00;99425.72;5099167;28;19933;-80
2023/10/13 15:34:23;;;;;;;;;;;;;;;20.24;100.00;99417.63;5077569;28;19914;-80
2023/10/13 15:37:12;;;;;;;;;;;;;;;20.25;100.00;99416.44;5111329;28;20132;-80
2023/10/13 15:39:57;;;;;;;;;;;;;;;20.18;100.00;99407.09;5096416;28;19986;-80
2023/10/13 15:42:42;;;;;;;;;;;;;;;20.15;100.00;99413.50;5095362;28;19999;-80
2023/10/13 15:45:32;;;;;;;;;;;;;;;20.14;100.00;99418.28;5103363;28;19961;-80
2023/10/13 15:48:16;;;;;;;;;;;;;;;20.11;100.00;99409.81;5116200;28;20309;-80
2023/10/13 15:51:03;;;;;;;;;;;;;;;20.06;100.00;99400.50;5088784;28;19914;-80
2023/10/13 15:53:47;;;;;;;;;;;;;;;20.04;100.00;99407.72;5089144;28;19997;-80
2023/10/13 15:56:32;;;;;;;;;;;;;;;20.02;100.00;99421.38;5103764;28;19918;-80
2023/10/13 15:59:16;;;;;;;;;;;;;;;20.00;100.00;99426.59;5087694;28;20263;-80
2023/10/13 16:02:00;;;;;;;;;;;;;;;19.97;100.00;99422.53;5099827;28;20397;-80
2023/10/13 16:04:44;;;;;;;;;;;;;;;19.95;100.00;99432.59;5104683;28;19964;-80
2023/10/13 16:07:28;;;;;;;;;;;;;;;19.89;100.00;99423.63;5097158;28;20053;-80
2023/10/13 16:10:13;;;;;;;;;;;;;;;19.85;100.00;99440.50;5120852;28;20453;-80
2023/10/13 16:12:57;;;;;;;;;;;;;;;19.83;100.00;99450.53;5098706;28;19919;-80
2023/10/13 16:15:47;;;;;;;;;;;;;;;19.78;100.00;99446.06;5102678;28;19970;-80
2023/10/13 16:18:34;;;;;;;;;;;;;;;19.71;100.00;99440.31;5076290;28;20256;-80
2023/10/13 16:21:18;;;;;;;;;;;;;;;19.71;100.00;99431.06;5119678;28;19915;-79
2023/10/13 16:24:03;;;;;;;;;;;;;;;19.67;100.00;99439.47;5099231;28;19914;-79
2023/10/13 16:26:52;;;;;;;;;;;;;;;19.63;100.00;99433.72;5085647;28;19914;-80
2023/10/13 16:29:36;;;;;;;;;;;;;;;19.59;100.00;99437.72;5082687;28;19929;-80
2023/10/13 16:32:20;;;;;;;;;;;;;;;19.53;100.00;99427.94;5097923;27;19915;-80
2023/10/13 16:35:05;;;;;;;;;;;;;;;19.52;100.00;99440.41;5093903;28;20264;-79
2023/10/13 16:37:52;;;;;;;;;;;;;;;19.50;100.00;99435.19;5115947;28;20010;-80
2023/10/13 16:40:39;;;;;;;;;;;;;;;19.46;100.00;99439.13;5105082;28;19957;-80
2023/10/13 16:43:23;;;;;;;;;;;;;;;19.40;100.00;99453.53;5115997;28;19961;-80
2023/10/13 16:46:15;;;;;;;;;;;;;;;19.38;100.00;99449.47;5111181;28;20313;-80
2023/10/13 16:48:59;;;;;;;;;;;;;;;19.31;100.00;99457.81;5097261;28;19983;-80
2023/10/13 16:51:44;;;;;;;;;;;;;;;19.27;100.00;99454.13;5107543;28;19914;-80
2023/10/13 16:54:28;;;;;;;;;;;;;;;19.23;100.00;99442.81;5109578;28;19961;-80
2023/10/13 16:57:13;;;;;;;;;;;;;;;19.20;100.00;99443.56;5078645;28;19918;-79
2023/10/13 16:59:57;;;;;;;;;;;;;;;19.16;100.00;99448.31;5089612;28;20427;-80
2023/10/13 17:02:41;;;;;;;;;;;;;;;19.12;100.00;99464.34;5090490;28;19915;-79
2023/10/13 17:05:27;;;;;;;;;;;;;;;19.10;100.00;99449.84;5106500;28;19918;-80